| Date | Time | Temp. (oF) | Dew Point (oF) | Rel. Hum. (%) | Press. (in.) | Wind Dir. | Wind Speed (mph) | Hourly Rainfall (in.) |
|
|---|---|---|---|---|---|---|---|---|---|
| 1 | 11/05 | 00:00 | 57 | 45 | 65 | 30.22 | ESE | 0 | 0.00 |
| 2 | 11/04 | 23:00 | 57 | 44 | 62 | 30.22 | ENE | 0 | 0.00 |
| 3 | 11/04 | 22:00 | 55 | 43 | 65 | 30.22 | S | 0 | 0.00 |
| 4 | 11/04 | 21:00 | 57 | 43 | 60 | 30.23 | S | 0 | 0.00 |
| 5 | 11/04 | 20:00 | 59 | 43 | 56 | 30.21 | SSW | 0 | 0.00 |
| 6 | 11/04 | 19:00 | 61 | 44 | 55 | 30.22 | SE | 0 | 0.00 |
| 7 | 11/04 | 18:00 | 64 | 43 | 48 | 30.21 | SSW | 0 | 0.00 |
| 8 | 11/04 | 17:00 | 69 | 43 | 40 | 30.19 | SSW | 4 | 0.00 |
| 9 | 11/04 | 16:00 | 73 | 42 | 34 | 30.18 | S | 6 | 0.00 |
| 10 | 11/04 | 15:00 | 74 | 39 | 29 | 30.18 | SSW | 3 | 0.00 |
| 11 | 11/04 | 14:00 | 76 | 41 | 30 | 30.20 | S | 12 | 0.00 |
| 12 | 11/04 | 13:00 | 75 | 49 | 41 | 30.21 | S | 7 | 0.00 |
| 13 | 11/04 | 12:00 | 71 | 49 | 46 | 30.24 | SSW | 2 | 0.00 |
| 14 | 11/04 | 11:00 | 66 | 48 | 53 | 30.26 | SE | 5 | 0.00 |
| 15 | 11/04 | 10:00 | 59 | 47 | 66 | 30.28 | E | 2 | 0.00 |
| 16 | 11/04 | 09:00 | 53 | 46 | 78 | 30.29 | S | 1 | 0.00 |
| 17 | 11/04 | 08:00 | 46 | 43 | 90 | 30.28 | ESE | 0 | 0.00 |
| 18 | 11/04 | 07:00 | 39 | 36 | 90 | 30.26 | SSW | 0 | 0.00 |
| 19 | 11/04 | 06:00 | 39 | 36 | 89 | 30.25 | SSW | 0 | 0.00 |
| 20 | 11/04 | 05:00 | 40 | 37 | 89 | 30.25 | NNE | 0 | 0.00 |
| 21 | 11/04 | 04:00 | 40 | 36 | 88 | 30.23 | SSW | 0 | 0.00 |
| 22 | 11/04 | 03:00 | 42 | 38 | 88 | 30.23 | SW | 0 | 0.00 |
| 23 | 11/04 | 02:00 | 43 | 39 | 87 | 30.22 | SSW | 0 | 0.00 |
| 24 | 11/04 | 01:00 | 43 | 39 | 86 | 30.21 | ENE | 0 | 0.00 |